Accueil
METAR-TAF:

METAR-TAF

Aéroports :

Agri-Science Center

Chillicothe, Missouri, États-Unis

latitude: 39-49N, longitude: 093-35W, altitude: 234 m

Observation

Le bulletin a été fait il y a 31 minutes, à 17:52 UTC
Vent 6 kt de direction variable
Température 3°C
Humidité 60%
Pression 1022 hPa

METAR: KCDJ 101752Z AUTO VRB06KT 03/M04 A3018 RMK AO1 SLP233 T00331039 10039 21061 $

Heure: 13:23 (18:23 UTC)


TAF: absent

Observations et prévisions météorologiques de plus de 4000 aéroports (messages METAR et TAF).

Les stations disponibles sont représentées par des disques jaunes et rouges sur la carte.

Passer la souris dessus pour voir le nom de la station.

Cliquer dessus pour voir les observations et prévisions météorologiques.

Pour changer de carte: cliquez sur les boutons verts avec une croix noire pour zoomer, sur le bouton vert avec un tiret pour effectuer un zoom arrière, ou sur les flèches vertes pour les cartes adjacentes.


METAR-TAF: